createdAt,value
2019-02-21T00:01:16.929Z,19.70
2019-02-21T00:06:29.096Z,18.73
2019-02-21T00:11:34.880Z,15.23
2019-02-21T00:16:40.647Z,13.80
2019-02-21T00:21:46.075Z,17.30
2019-02-21T00:26:51.520Z,20.57
2019-02-21T00:31:56.962Z,16.80
2019-02-21T00:37:02.850Z,14.97
2019-02-21T00:42:08.370Z,14.73
2019-02-21T00:47:14.126Z,12.07
2019-02-21T00:52:19.659Z,11.20
2019-02-21T00:57:25.088Z,12.50
2019-02-21T01:02:31.243Z,17.47
2019-02-21T01:07:37.051Z,14.70
2019-02-21T01:12:42.811Z,19.43
2019-02-21T01:17:48.234Z,13.80
2019-02-21T01:22:54.551Z,16.33
2019-02-21T01:28:00.035Z,17.00
2019-02-21T01:33:05.944Z,16.40
2019-02-21T01:38:11.477Z,16.63
2019-02-21T01:43:17.190Z,18.23
2019-02-21T01:48:22.620Z,13.93
2019-02-21T01:53:28.377Z,15.20
2019-02-21T01:58:33.807Z,12.50
2019-02-21T02:03:39.275Z,14.03
2019-02-21T02:08:45.067Z,15.07
2019-02-21T02:13:50.483Z,14.63
2019-02-21T02:18:55.910Z,19.60
2019-02-21T02:24:01.331Z,11.63
2019-02-21T02:29:07.103Z,19.13
2019-02-21T02:34:12.541Z,13.70
2019-02-21T02:39:18.322Z,17.33
2019-02-21T02:44:23.763Z,18.50
2019-02-21T02:49:29.182Z,16.17
2019-02-21T02:54:34.700Z,19.00
2019-02-21T02:59:41.320Z,16.50
2019-02-21T03:04:45.974Z,18.50
2019-02-21T03:09:51.765Z,21.03
2019-02-21T03:14:57.191Z,19.13
2019-02-21T03:20:03.019Z,15.07
2019-02-21T03:25:08.511Z,20.73
2019-02-21T03:30:14.299Z,20.70
2019-02-21T03:35:19.752Z,21.77
2019-02-21T03:40:25.886Z,25.03
2019-02-21T03:45:31.694Z,17.97
2019-02-21T03:50:37.834Z,28.20
2019-02-21T03:55:43.396Z,18.63
2019-02-21T04:00:48.849Z,27.47
2019-02-21T04:05:54.660Z,22.10
2019-02-21T04:11:00.102Z,24.97
2019-02-21T04:16:05.925Z,21.60
2019-02-21T04:21:12.528Z,25.10
2019-02-21T04:26:17.951Z,27.63
2019-02-21T04:31:24.101Z,21.23
2019-02-21T04:36:29.527Z,25.40
2019-02-21T04:41:35.319Z,24.93
2019-02-21T04:46:40.770Z,30.40
2019-02-21T04:51:46.884Z,26.27
2019-02-21T04:56:52.331Z,30.93
2019-02-21T05:01:57.762Z,33.70
2019-02-21T05:07:03.450Z,28.77
2019-02-21T05:12:09.312Z,31.20
2019-02-21T05:17:14.838Z,36.00
2019-02-21T05:22:20.275Z,43.37
2019-02-21T05:27:30.006Z,37.60
2019-02-21T05:32:41.333Z,35.40
2019-02-21T05:37:51.231Z,35.97
2019-02-21T05:43:05.685Z,44.87
2019-02-21T05:48:17.312Z,38.50
2019-02-21T05:53:26.885Z,38.80
2019-02-21T05:59:42.158Z,38.50
2019-02-21T06:04:53.536Z,37.37
2019-02-21T06:10:06.199Z,42.17
2019-02-21T06:16:15.896Z,44.00
2019-02-21T06:21:29.388Z,38.80
2019-02-21T06:26:40.201Z,43.17
2019-02-21T06:31:45.627Z,43.57
2019-02-21T06:36:51.074Z,42.63
2019-02-21T06:41:59.950Z,50.47
2019-02-21T06:47:02.492Z,45.70
2019-02-21T06:52:07.990Z,45.03
2019-02-21T06:57:13.874Z,45.90
2019-02-21T07:02:19.416Z,44.67
2019-02-21T07:07:24.886Z,49.97
2019-02-21T07:12:30.459Z,46.67
2019-02-21T07:17:36.002Z,51.27
2019-02-21T07:22:41.923Z,53.90
2019-02-21T07:27:47.461Z,50.33
2019-02-21T07:32:52.942Z,41.00
2019-02-21T07:37:58.463Z,47.90
2019-02-21T07:43:04.292Z,52.43
2019-02-21T07:48:09.846Z,52.97
2019-02-21T07:53:15.623Z,53.63
2019-02-21T07:58:21.104Z,49.93
2019-02-21T08:03:30.325Z,53.73
2019-02-21T08:08:32.662Z,47.77
2019-02-21T08:13:38.016Z,51.70
2019-02-21T08:18:43.811Z,51.70
2019-02-21T08:23:50.873Z,55.87
2019-02-21T08:28:55.075Z,54.23
2019-02-21T08:34:07.207Z,53.80
2019-02-21T08:39:12.659Z,52.13
2019-02-21T08:44:18.482Z,49.07
2019-02-21T08:49:23.948Z,53.80
2019-02-21T08:54:29.410Z,54.23
2019-02-21T08:59:35.271Z,61.30
2019-02-21T09:04:41.066Z,55.03
2019-02-21T09:09:46.883Z,61.27
2019-02-21T09:14:52.340Z,61.83
2019-02-21T09:19:58.123Z,61.67
2019-02-21T09:25:03.544Z,50.83
2019-02-21T09:30:14.004Z,61.30
2019-02-21T09:35:19.470Z,58.23
2019-02-21T09:40:25.292Z,56.27
2019-02-21T09:45:32.811Z,53.23
2019-02-21T09:50:36.582Z,58.67
2019-02-21T09:55:42.056Z,51.77
2019-02-21T10:00:47.507Z,60.27
2019-02-21T10:05:53.109Z,55.37
2019-02-21T10:11:00.735Z,57.70
2019-02-21T10:16:04.935Z,49.50
2019-02-21T10:21:09.774Z,55.50
2019-02-21T10:26:15.565Z,51.47
2019-02-21T10:31:21.011Z,64.73
2019-02-21T10:36:26.454Z,56.20
2019-02-21T10:41:32.395Z,52.17
2019-02-21T10:46:37.919Z,51.97
2019-02-21T10:51:43.437Z,45.90
2019-02-21T10:56:48.892Z,51.73
2019-02-21T11:01:54.482Z,45.70
2019-02-21T11:07:00.268Z,42.97
2019-02-21T11:12:06.468Z,45.77
2019-02-21T11:17:11.920Z,46.90
2019-02-21T11:22:17.418Z,44.60
2019-02-21T11:27:22.862Z,44.17
2019-02-21T11:32:31.200Z,42.27
2019-02-21T11:37:43.228Z,36.33
2019-02-21T11:42:42.747Z,40.43
2019-02-21T11:47:50.487Z,40.37
2019-02-21T11:52:56.757Z,34.37
2019-02-21T11:58:04.265Z,32.83
2019-02-21T12:03:11.324Z,37.83
2019-02-21T12:08:17.367Z,32.90
2019-02-21T12:13:22.979Z,34.13
2019-02-21T12:18:29.033Z,38.97
2019-02-21T12:23:34.838Z,30.17
2019-02-21T12:28:40.646Z,30.40
2019-02-21T12:33:46.145Z,31.30
2019-02-21T12:38:51.652Z,34.83
2019-02-21T12:43:57.174Z,32.63
2019-02-21T12:49:02.630Z,32.83
2019-02-21T12:54:08.111Z,33.53
2019-02-21T12:59:13.614Z,27.67
2019-02-21T13:04:19.234Z,33.67
2019-02-21T13:09:24.809Z,30.93
2019-02-21T13:14:30.748Z,29.97
2019-02-21T13:19:36.216Z,35.57
2019-02-21T13:24:41.798Z,30.17
2019-02-21T13:29:47.339Z,27.50
2019-02-21T13:34:52.868Z,24.30
2019-02-21T13:40:00.542Z,28.73
2019-02-21T13:45:05.079Z,24.77
2019-02-21T13:50:14.707Z,25.40
2019-02-21T13:55:20.295Z,28.63
2019-02-21T14:00:25.988Z,23.77
2019-02-21T14:05:31.486Z,22.33
2019-02-21T14:10:36.973Z,20.70
2019-02-21T14:15:42.883Z,26.33
2019-02-21T14:20:48.447Z,17.93
2019-02-21T14:25:55.842Z,20.40
2019-02-21T14:31:01.437Z,23.77
2019-02-21T14:36:15.123Z,26.67
2019-02-21T14:41:12.581Z,22.03
2019-02-21T14:46:18.502Z,19.83
2019-02-21T14:51:24.110Z,23.43
2019-02-21T14:56:29.905Z,25.40
2019-02-21T15:01:35.460Z,28.83
2019-02-21T15:06:41.052Z,23.77
2019-02-21T15:11:52.710Z,27.53
2019-02-21T15:16:58.159Z,25.07
2019-02-21T15:22:03.977Z,26.93
2019-02-21T15:27:09.960Z,29.00
2019-02-21T15:32:15.654Z,28.73
2019-02-21T15:37:21.847Z,23.83
2019-02-21T15:42:27.826Z,28.87
2019-02-21T15:47:33.515Z,22.17
2019-02-21T15:52:39.418Z,25.63
2019-02-21T15:57:45.455Z,26.97
2019-02-21T16:02:51.267Z,25.13
2019-02-21T16:07:56.776Z,22.83
2019-02-21T16:13:04.289Z,24.43
2019-02-21T16:18:08.002Z,25.67
2019-02-21T16:23:13.544Z,23.37
2019-02-21T16:28:18.983Z,23.23
2019-02-21T16:33:24.458Z,27.53
2019-02-21T16:38:30.006Z,27.43
2019-02-21T16:43:35.769Z,27.87
2019-02-21T16:48:41.251Z,24.73
2019-02-21T16:53:46.709Z,31.83
2019-02-21T16:58:52.194Z,31.10
2019-02-21T17:03:57.723Z,24.23
2019-02-21T17:09:03.421Z,26.23
2019-02-21T17:14:09.322Z,27.50
2019-02-21T17:19:14.822Z,27.20
2019-02-21T17:24:20.305Z,26.90
2019-02-21T17:29:25.807Z,27.10
2019-02-21T17:34:31.336Z,32.50
2019-02-21T17:39:36.911Z,29.03
2019-02-21T17:44:42.461Z,31.30
2019-02-21T17:49:48.011Z,29.63
2019-02-21T17:54:53.608Z,26.57
2019-02-21T17:59:59.502Z,26.83
2019-02-21T18:05:05.040Z,28.10
2019-02-21T18:10:13.420Z,29.43
2019-02-21T18:15:18.944Z,29.10
2019-02-21T18:20:25.338Z,31.40
2019-02-21T18:25:38.741Z,34.33
2019-02-21T18:30:44.378Z,30.53
2019-02-21T18:35:50.502Z,33.47
2019-02-21T18:40:56.354Z,33.17
2019-02-21T18:46:02.492Z,33.77
2019-02-21T18:51:08.036Z,32.70
2019-02-21T18:56:13.846Z,39.07
2019-02-21T19:01:19.304Z,34.80
2019-02-21T19:06:24.742Z,32.87
2019-02-21T19:11:30.576Z,37.83
2019-02-21T19:16:36.031Z,36.93
2019-02-21T19:21:41.498Z,40.23
2019-02-21T19:26:46.951Z,40.97
2019-02-21T19:31:52.943Z,42.67
2019-02-21T19:36:58.419Z,46.37
2019-02-21T19:42:03.875Z,46.57
2019-02-21T19:47:09.378Z,46.63
2019-02-21T19:52:15.474Z,47.03
2019-02-21T19:57:20.926Z,49.57
2019-02-21T20:02:26.783Z,46.87
2019-02-21T20:07:32.228Z,46.37
2019-02-21T20:12:38.042Z,45.63
2019-02-21T20:17:43.946Z,52.17
2019-02-21T20:22:49.409Z,47.77
2019-02-21T20:27:55.565Z,53.37
2019-02-21T20:33:01.261Z,51.80
2019-02-21T20:38:07.138Z,55.30
2019-02-21T20:43:13.279Z,56.40
2019-02-21T20:48:19.322Z,62.50
2019-02-21T20:53:25.559Z,56.30
2019-02-21T20:58:31.411Z,59.33
2019-02-21T21:03:37.224Z,59.43
2019-02-21T21:08:46.517Z,59.23
2019-02-21T21:13:48.511Z,62.13
2019-02-21T21:18:54.341Z,65.17
2019-02-21T21:23:59.816Z,61.47
2019-02-21T21:29:05.974Z,58.03
2019-02-21T21:34:11.482Z,54.50
2019-02-21T21:39:16.958Z,61.43
2019-02-21T21:44:22.408Z,58.47
2019-02-21T21:49:28.199Z,57.80
2019-02-21T21:54:33.647Z,51.73
2019-02-21T21:59:39.103Z,49.97
2019-02-21T22:04:44.881Z,47.70
2019-02-21T22:09:50.682Z,49.43
2019-02-21T22:14:56.119Z,49.87
2019-02-21T22:20:01.971Z,50.67
2019-02-21T22:25:08.844Z,50.27
2019-02-21T22:30:15.918Z,47.23
2019-02-21T22:35:21.393Z,47.17
2019-02-21T22:40:26.868Z,44.87
2019-02-21T22:45:32.657Z,46.80
2019-02-21T22:50:38.758Z,39.73
2019-02-21T22:55:44.561Z,40.67
2019-02-21T23:01:32.091Z,39.03
2019-02-21T23:06:50.650Z,35.00
2019-02-21T23:11:56.495Z,36.53
2019-02-21T23:17:02.627Z,32.93
2019-02-21T23:22:08.487Z,36.47
2019-02-21T23:27:14.062Z,30.37
2019-02-21T23:32:19.862Z,27.73
2019-02-21T23:37:25.673Z,26.70
2019-02-21T23:42:31.451Z,25.90
2019-02-21T23:47:37.166Z,21.77
2019-02-21T23:52:42.676Z,22.63
2019-02-21T23:57:48.133Z,20.93
